sensor_id;sensor_type;location;lat;lon;timestamp;pressure;altitude;pressure_sealevel;temperature;humidity
84928;BME280;75189;50.640;19.242;2024-03-02T00:05:37;101254.98;;;7.63;75.13
84928;BME280;75189;50.640;19.242;2024-03-02T00:11:44;101242.44;;;7.61;75.11
84928;BME280;75189;50.640;19.242;2024-03-02T00:17:54;101242.37;;;7.62;75.14
84928;BME280;75189;50.640;19.242;2024-03-02T00:24:12;101248.73;;;7.61;75.05
84928;BME280;75189;50.640;19.242;2024-03-02T00:36:40;101253.59;;;7.53;74.98
84928;BME280;75189;50.640;19.242;2024-03-02T00:42:47;101257.40;;;7.49;75.04
84928;BME280;75189;50.640;19.242;2024-03-02T00:48:56;101250.38;;;7.44;75.07
84928;BME280;75189;50.640;19.242;2024-03-02T00:55:04;101250.84;;;7.33;75.18
84928;BME280;75189;50.640;19.242;2024-03-02T01:01:12;101245.42;;;7.33;75.16
84928;BME280;75189;50.640;19.242;2024-03-02T01:07:21;101250.04;;;7.31;75.01
84928;BME280;75189;50.640;19.242;2024-03-02T01:13:27;101238.52;;;7.26;74.90
84928;BME280;75189;50.640;19.242;2024-03-02T01:19:36;101240.51;;;7.21;74.78
84928;BME280;75189;50.640;19.242;2024-03-02T01:25:47;101233.52;;;7.15;74.94
84928;BME280;75189;50.640;19.242;2024-03-02T01:31:54;101230.24;;;7.07;74.60
84928;BME280;75189;50.640;19.242;2024-03-02T01:38:02;101223.26;;;7.01;74.63
84928;BME280;75189;50.640;19.242;2024-03-02T01:44:09;101213.64;;;6.94;74.55
84928;BME280;75189;50.640;19.242;2024-03-02T01:56:34;101217.78;;;6.81;74.82
84928;BME280;75189;50.640;19.242;2024-03-02T02:02:41;101211.53;;;6.79;75.03
84928;BME280;75189;50.640;19.242;2024-03-02T02:08:53;101199.02;;;6.76;75.13
84928;BME280;75189;50.640;19.242;2024-03-02T02:15:00;101199.91;;;6.77;75.27
84928;BME280;75189;50.640;19.242;2024-03-02T02:21:07;101188.97;;;6.80;75.30
84928;BME280;75189;50.640;19.242;2024-03-02T02:27:14;101184.43;;;6.80;75.34
84928;BME280;75189;50.640;19.242;2024-03-02T02:33:21;101182.46;;;6.84;75.21
84928;BME280;75189;50.640;19.242;2024-03-02T02:39:28;101177.20;;;6.81;75.21
84928;BME280;75189;50.640;19.242;2024-03-02T02:45:35;101169.08;;;6.81;75.23
84928;BME280;75189;50.640;19.242;2024-03-02T02:51:42;101179.95;;;6.79;75.23
84928;BME280;75189;50.640;19.242;2024-03-02T02:58:10;101170.14;;;6.77;75.19
84928;BME280;75189;50.640;19.242;2024-03-02T03:04:17;101162.14;;;6.74;75.11
84928;BME280;75189;50.640;19.242;2024-03-02T03:10:24;101175.16;;;6.64;75.18
84928;BME280;75189;50.640;19.242;2024-03-02T03:16:34;101166.23;;;6.62;75.27
84928;BME280;75189;50.640;19.242;2024-03-02T03:22:42;101159.98;;;6.60;75.34
84928;BME280;75189;50.640;19.242;2024-03-02T03:28:49;101174.34;;;6.62;75.35
84928;BME280;75189;50.640;19.242;2024-03-02T03:34:56;101166.23;;;6.62;75.37
84928;BME280;75189;50.640;19.242;2024-03-02T03:41:03;101171.58;;;6.63;75.45
84928;BME280;75189;50.640;19.242;2024-03-02T03:47:27;101182.28;;;6.67;75.45
84928;BME280;75189;50.640;19.242;2024-03-02T03:53:34;101172.23;;;6.70;75.53
84928;BME280;75189;50.640;19.242;2024-03-02T03:59:41;101178.45;;;6.72;75.59
84928;BME280;75189;50.640;19.242;2024-03-02T04:05:48;101174.85;;;6.72;75.66
84928;BME280;75189;50.640;19.242;2024-03-02T04:11:55;101170.22;;;6.75;75.78
84928;BME280;75189;50.640;19.242;2024-03-02T04:18:03;101172.85;;;6.77;75.79
84928;BME280;75189;50.640;19.242;2024-03-02T04:24:12;101169.96;;;6.81;75.76
84928;BME280;75189;50.640;19.242;2024-03-02T04:30:18;101167.33;;;6.80;75.80
84928;BME280;75189;50.640;19.242;2024-03-02T04:36:44;101173.47;;;6.83;76.08
84928;BME280;75189;50.640;19.242;2024-03-02T04:42:51;101176.35;;;6.79;75.73
84928;BME280;75189;50.640;19.242;2024-03-02T04:48:58;101181.77;;;6.79;75.85
84928;BME280;75189;50.640;19.242;2024-03-02T04:55:05;101182.65;;;6.79;75.85
84928;BME280;75189;50.640;19.242;2024-03-02T05:01:24;101179.90;;;6.81;75.84
84928;BME280;75189;50.640;19.242;2024-03-02T05:07:31;101178.07;;;6.81;75.87
84928;BME280;75189;50.640;19.242;2024-03-02T05:13:38;101177.13;;;6.82;75.91
84928;BME280;75189;50.640;19.242;2024-03-02T05:19:45;101177.05;;;6.84;75.94
84928;BME280;75189;50.640;19.242;2024-03-02T05:26:01;101176.13;;;6.85;75.92
84928;BME280;75189;50.640;19.242;2024-03-02T05:32:09;101189.59;;;6.86;76.01
84928;BME280;75189;50.640;19.242;2024-03-02T05:38:22;101208.60;;;6.85;76.06
84928;BME280;75189;50.640;19.242;2024-03-02T05:44:43;101211.30;;;6.85;76.08
84928;BME280;75189;50.640;19.242;2024-03-02T05:50:59;101203.92;;;6.88;76.08
84928;BME280;75189;50.640;19.242;2024-03-02T05:57:20;101211.23;;;6.86;76.04
84928;BME280;75189;50.640;19.242;2024-03-02T06:03:45;101223.88;;;6.86;76.11
84928;BME280;75189;50.640;19.242;2024-03-02T06:10:01;101230.17;;;6.86;76.21
84928;BME280;75189;50.640;19.242;2024-03-02T06:16:07;101230.94;;;6.90;76.22
84928;BME280;75189;50.640;19.242;2024-03-02T06:22:14;101234.27;;;6.97;76.19
84928;BME280;75189;50.640;19.242;2024-03-02T06:28:21;101239.56;;;7.00;76.16
84928;BME280;75189;50.640;19.242;2024-03-02T06:34:28;101237.99;;;6.94;76.29
84928;BME280;75189;50.640;19.242;2024-03-02T06:40:35;101225.96;;;7.01;76.45
84928;BME280;75189;50.640;19.242;2024-03-02T06:46:44;101232.77;;;7.11;76.51
84928;BME280;75189;50.640;19.242;2024-03-02T06:52:51;101240.59;;;7.19;76.64
84928;BME280;75189;50.640;19.242;2024-03-02T06:59:15;101225.79;;;7.28;76.84
84928;BME280;75189;50.640;19.242;2024-03-02T07:05:22;101241.59;;;7.38;77.01
84928;BME280;75189;50.640;19.242;2024-03-02T07:11:29;101247.45;;;7.50;77.18
84928;BME280;75189;50.640;19.242;2024-03-02T07:17:36;101248.62;;;7.64;77.26
84928;BME280;75189;50.640;19.242;2024-03-02T07:23:43;101248.11;;;7.77;77.38
84928;BME280;75189;50.640;19.242;2024-03-02T07:29:50;101261.09;;;7.89;77.52
84928;BME280;75189;50.640;19.242;2024-03-02T07:35:57;101254.20;;;8.02;77.62
84928;BME280;75189;50.640;19.242;2024-03-02T07:42:07;101259.84;;;8.18;77.59
84928;BME280;75189;50.640;19.242;2024-03-02T07:48:32;101265.64;;;8.29;77.66
84928;BME280;75189;50.640;19.242;2024-03-02T07:54:39;101267.56;;;8.48;77.72
84928;BME280;75189;50.640;19.242;2024-03-02T08:00:46;101197.69;;;8.13;77.70
84928;BME280;75189;50.640;19.242;2024-03-02T08:06:53;101277.93;;;8.77;77.81
84928;BME280;75189;50.640;19.242;2024-03-02T08:13:01;101287.92;;;8.96;77.90
84928;BME280;75189;50.640;19.242;2024-03-02T08:19:08;101279.73;;;9.16;77.86
84928;BME280;75189;50.640;19.242;2024-03-02T08:25:16;101274.64;;;9.27;77.57
84928;BME280;75189;50.640;19.242;2024-03-02T08:31:23;101276.67;;;9.41;77.20
84928;BME280;75189;50.640;19.242;2024-03-02T08:37:50;101278.61;;;9.56;76.93
84928;BME280;75189;50.640;19.242;2024-03-02T08:43:56;101278.74;;;9.72;76.79
84928;BME280;75189;50.640;19.242;2024-03-02T08:50:04;101277.07;;;9.87;76.62
84928;BME280;75189;50.640;19.242;2024-03-02T08:56:12;101277.33;;;10.00;76.38
84928;BME280;75189;50.640;19.242;2024-03-02T09:02:22;101280.20;;;10.14;76.17
84928;BME280;75189;50.640;19.242;2024-03-02T09:08:29;101278.70;;;10.26;75.86
84928;BME280;75189;50.640;19.242;2024-03-02T09:14:38;101279.74;;;10.40;75.72
84928;BME280;75189;50.640;19.242;2024-03-02T09:20:45;101281.00;;;10.51;75.42
84928;BME280;75189;50.640;19.242;2024-03-02T09:27:06;101292.17;;;10.62;75.14
84928;BME280;75189;50.640;19.242;2024-03-02T09:33:13;101287.98;;;10.72;74.91
84928;BME280;75189;50.640;19.242;2024-03-02T09:39:20;101293.82;;;10.82;74.59
84928;BME280;75189;50.640;19.242;2024-03-02T09:45:27;101294.97;;;10.93;74.06
84928;BME280;75189;50.640;19.242;2024-03-02T09:51:34;101298.88;;;11.05;73.89
84928;BME280;75189;50.640;19.242;2024-03-02T09:57:42;101289.38;;;11.12;73.78
84928;BME280;75189;50.640;19.242;2024-03-02T10:03:50;101297.91;;;11.22;73.63
84928;BME280;75189;50.640;19.242;2024-03-02T10:09:58;101297.48;;;11.30;73.38
84928;BME280;75189;50.640;19.242;2024-03-02T10:16:23;101289.75;;;11.38;72.97
84928;BME280;75189;50.640;19.242;2024-03-02T10:22:30;101288.41;;;11.45;72.69
84928;BME280;75189;50.640;19.242;2024-03-02T10:28:48;101296.05;;;11.54;72.60
84928;BME280;75189;50.640;19.242;2024-03-02T10:34:55;101291.92;;;11.63;72.48
84928;BME280;75189;50.640;19.242;2024-03-02T10:41:03;101293.40;;;11.68;72.20
84928;BME280;75189;50.640;19.242;2024-03-02T10:47:12;101293.73;;;11.78;72.03
84928;BME280;75189;50.640;19.242;2024-03-02T10:53:20;101288.67;;;11.88;71.77
84928;BME280;75189;50.640;19.242;2024-03-02T10:59:33;101284.42;;;11.98;71.70
84928;BME280;75189;50.640;19.242;2024-03-02T11:05:44;101290.20;;;12.08;71.65
84928;BME280;75189;50.640;19.242;2024-03-02T11:18:11;101267.59;;;12.20;71.20
84928;BME280;75189;50.640;19.242;2024-03-02T11:24:28;101273.40;;;12.30;70.97
84928;BME280;75189;50.640;19.242;2024-03-02T11:36:57;101262.59;;;12.57;70.64
84928;BME280;75189;50.640;19.242;2024-03-02T11:43:06;101266.23;;;12.71;70.39
84928;BME280;75189;50.640;19.242;2024-03-02T11:49:38;101263.57;;;12.84;70.11
84928;BME280;75189;50.640;19.242;2024-03-02T11:55:45;101266.29;;;12.98;69.99
84928;BME280;75189;50.640;19.242;2024-03-02T12:01:55;101259.28;;;13.09;69.54
84928;BME280;75189;50.640;19.242;2024-03-02T12:08:07;101266.00;;;13.17;69.41
84928;BME280;75189;50.640;19.242;2024-03-02T12:14:14;101256.24;;;13.28;68.72
84928;BME280;75189;50.640;19.242;2024-03-02T12:20:21;101258.87;;;13.29;68.05
84928;BME280;75189;50.640;19.242;2024-03-02T12:26:30;101252.79;;;13.38;67.67
84928;BME280;75189;50.640;19.242;2024-03-02T12:32:38;101245.46;;;13.39;67.00
84928;BME280;75189;50.640;19.242;2024-03-02T12:38:46;101243.97;;;13.47;67.25
84928;BME280;75189;50.640;19.242;2024-03-02T12:44:53;101240.43;;;13.60;67.53
84928;BME280;75189;50.640;19.242;2024-03-02T12:51:04;101239.88;;;13.67;67.56
84928;BME280;75189;50.640;19.242;2024-03-02T12:57:19;101234.98;;;13.72;67.56
84928;BME280;75189;50.640;19.242;2024-03-02T13:03:26;101234.66;;;13.77;67.45
84928;BME280;75189;50.640;19.242;2024-03-02T13:09:35;101231.93;;;13.77;67.46
84928;BME280;75189;50.640;19.242;2024-03-02T13:15:42;101232.04;;;13.75;66.88
84928;BME280;75189;50.640;19.242;2024-03-02T13:21:49;101228.33;;;13.76;66.77
84928;BME280;75189;50.640;19.242;2024-03-02T13:28:03;101224.31;;;13.82;66.77
84928;BME280;75189;50.640;19.242;2024-03-02T13:34:10;101226.73;;;13.87;66.76
84928;BME280;75189;50.640;19.242;2024-03-02T13:40:17;101224.95;;;13.86;66.26
84928;BME280;75189;50.640;19.242;2024-03-02T13:46:27;101234.16;;;13.85;66.00
84928;BME280;75189;50.640;19.242;2024-03-02T13:52:34;101243.09;;;13.74;65.37
84928;BME280;75189;50.640;19.242;2024-03-02T13:58:42;101242.12;;;13.75;65.24
84928;BME280;75189;50.640;19.242;2024-03-02T14:04:50;101246.91;;;13.71;64.93
84928;BME280;75189;50.640;19.242;2024-03-02T14:10:57;101251.39;;;13.72;64.77
84928;BME280;75189;50.640;19.242;2024-03-02T14:17:19;101234.57;;;13.79;64.77
84928;BME280;75189;50.640;19.242;2024-03-02T14:23:26;101232.24;;;13.72;64.64
84928;BME280;75189;50.640;19.242;2024-03-02T14:29:35;101247.34;;;13.65;64.40
84928;BME280;75189;50.640;19.242;2024-03-02T14:35:45;101242.48;;;13.56;64.39
84928;BME280;75189;50.640;19.242;2024-03-02T14:45:15;101232.73;;;13.52;64.46
84928;BME280;75189;50.640;19.242;2024-03-02T14:51:22;101239.94;;;13.53;64.35
84928;BME280;75189;50.640;19.242;2024-03-02T14:57:29;101230.30;;;13.47;64.39
84928;BME280;75189;50.640;19.242;2024-03-02T15:03:36;101233.04;;;13.47;64.45
84928;BME280;75189;50.640;19.242;2024-03-02T15:09:43;101226.88;;;13.44;64.55
84928;BME280;75189;50.640;19.242;2024-03-02T15:15:52;101235.39;;;13.39;64.52
84928;BME280;75189;50.640;19.242;2024-03-02T15:21:59;101231.80;;;13.39;64.57
84928;BME280;75189;50.640;19.242;2024-03-02T15:28:31;101226.32;;;13.39;64.60
84928;BME280;75189;50.640;19.242;2024-03-02T15:34:38;101241.18;;;13.35;64.53
84928;BME280;75189;50.640;19.242;2024-03-02T15:40:45;101231.72;;;13.26;64.46
84928;BME280;75189;50.640;19.242;2024-03-02T15:46:52;101226.83;;;13.17;64.40
84928;BME280;75189;50.640;19.242;2024-03-02T15:52:59;101226.07;;;13.15;64.53
84928;BME280;75189;50.640;19.242;2024-03-02T15:59:12;101230.70;;;13.00;64.85
84928;BME280;75189;50.640;19.242;2024-03-02T16:05:19;101227.76;;;12.89;65.00
84928;BME280;75189;50.640;19.242;2024-03-02T16:11:27;101241.82;;;12.83;65.04
84928;BME280;75189;50.640;19.242;2024-03-02T16:17:48;101246.21;;;12.71;65.21
84928;BME280;75189;50.640;19.242;2024-03-02T16:23:55;101250.02;;;12.54;65.23
84928;BME280;75189;50.640;19.242;2024-03-02T16:30:02;101259.27;;;12.37;65.32
84928;BME280;75189;50.640;19.242;2024-03-02T16:36:11;101260.32;;;12.20;65.47
84928;BME280;75189;50.640;19.242;2024-03-02T16:42:19;101264.66;;;12.09;65.61
84928;BME280;75189;50.640;19.242;2024-03-02T16:48:30;101268.13;;;11.96;65.60
84928;BME280;75189;50.640;19.242;2024-03-02T16:54:37;101260.84;;;11.81;65.63
84928;BME280;75189;50.640;19.242;2024-03-02T17:00:44;101265.47;;;11.65;65.78
84928;BME280;75189;50.640;19.242;2024-03-02T17:07:06;101266.44;;;11.48;66.01
84928;BME280;75189;50.640;19.242;2024-03-02T17:13:13;101272.79;;;11.33;66.23
84928;BME280;75189;50.640;19.242;2024-03-02T17:19:20;101277.24;;;11.18;66.43
84928;BME280;75189;50.640;19.242;2024-03-02T17:25:27;101271.70;;;11.04;66.66
84928;BME280;75189;50.640;19.242;2024-03-02T17:31:34;101271.45;;;10.92;66.85
84928;BME280;75189;50.640;19.242;2024-03-02T17:37:41;101277.65;;;10.79;67.02
84928;BME280;75189;50.640;19.242;2024-03-02T17:43:48;101282.10;;;10.64;67.26
84928;BME280;75189;50.640;19.242;2024-03-02T17:49:55;101273.96;;;10.47;67.58
84928;BME280;75189;50.640;19.242;2024-03-02T17:56:22;101264.55;;;10.36;67.88
84928;BME280;75189;50.640;19.242;2024-03-02T18:02:30;101273.82;;;10.32;67.96
84928;BME280;75189;50.640;19.242;2024-03-02T18:08:41;101279.66;;;10.25;68.10
84928;BME280;75189;50.640;19.242;2024-03-02T18:14:48;101276.75;;;10.10;68.36
84928;BME280;75189;50.640;19.242;2024-03-02T18:20:55;101265.34;;;10.04;68.48
84928;BME280;75189;50.640;19.242;2024-03-02T18:27:03;101270.27;;;9.95;68.59
84928;BME280;75189;50.640;19.242;2024-03-02T18:33:10;101271.49;;;9.90;68.68
84928;BME280;75189;50.640;19.242;2024-03-02T18:39:17;101264.69;;;9.81;68.78
84928;BME280;75189;50.640;19.242;2024-03-02T18:45:39;101261.56;;;9.72;68.88
84928;BME280;75189;50.640;19.242;2024-03-02T18:51:46;101264.74;;;9.62;68.98
84928;BME280;75189;50.640;19.242;2024-03-02T18:57:53;101265.25;;;9.52;69.12
84928;BME280;75189;50.640;19.242;2024-03-02T19:04:00;101252.96;;;9.44;69.23
84928;BME280;75189;50.640;19.242;2024-03-02T19:10:08;101253.32;;;9.37;69.38
84928;BME280;75189;50.640;19.242;2024-03-02T19:16:17;101253.73;;;9.29;69.50
84928;BME280;75189;50.640;19.242;2024-03-02T19:22:25;101248.66;;;9.22;69.61
84928;BME280;75189;50.640;19.242;2024-03-02T19:28:34;101248.98;;;9.15;69.72
84928;BME280;75189;50.640;19.242;2024-03-02T19:34:56;101257.34;;;9.11;69.80
84928;BME280;75189;50.640;19.242;2024-03-02T19:41:04;101248.69;;;9.03;69.91
84928;BME280;75189;50.640;19.242;2024-03-02T19:47:12;101244.57;;;8.94;70.02
84928;BME280;75189;50.640;19.242;2024-03-02T19:53:33;101243.09;;;8.87;70.15
84928;BME280;75189;50.640;19.242;2024-03-02T19:59:40;101242.81;;;8.74;70.26
84928;BME280;75189;50.640;19.242;2024-03-02T20:05:47;101251.17;;;8.70;70.31
84928;BME280;75189;50.640;19.242;2024-03-02T20:11:54;101246.01;;;8.63;70.34
84928;BME280;75189;50.640;19.242;2024-03-02T20:18:03;101249.02;;;8.57;70.44
84928;BME280;75189;50.640;19.242;2024-03-02T20:24:13;101241.23;;;8.50;70.53
84928;BME280;75189;50.640;19.242;2024-03-02T20:30:21;101254.29;;;8.41;70.76
84928;BME280;75189;50.640;19.242;2024-03-02T20:36:28;101246.36;;;8.37;70.83
84928;BME280;75189;50.640;19.242;2024-03-02T20:42:35;101245.62;;;8.32;70.88
84928;BME280;75189;50.640;19.242;2024-03-02T20:48:43;101234.31;;;8.22;71.04
84928;BME280;75189;50.640;19.242;2024-03-02T20:54:54;101238.15;;;8.18;71.18
84928;BME280;75189;50.640;19.242;2024-03-02T21:01:01;101239.23;;;8.14;71.25
84928;BME280;75189;50.640;19.242;2024-03-02T21:07:11;101242.94;;;8.11;71.26
84928;BME280;75189;50.640;19.242;2024-03-02T21:13:31;101242.15;;;8.09;71.30
84928;BME280;75189;50.640;19.242;2024-03-02T21:19:38;101243.15;;;8.07;71.39
84928;BME280;75189;50.640;19.242;2024-03-02T21:25:45;101242.48;;;8.02;71.50
84928;BME280;75189;50.640;19.242;2024-03-02T21:31:52;101248.18;;;7.96;71.60
84928;BME280;75189;50.640;19.242;2024-03-02T21:38:02;101249.30;;;7.90;71.83
84928;BME280;75189;50.640;19.242;2024-03-02T21:44:09;101241.18;;;7.90;71.91
84928;BME280;75189;50.640;19.242;2024-03-02T21:50:16;101243.16;;;7.86;71.98
84928;BME280;75189;50.640;19.242;2024-03-02T21:56:23;101246.95;;;7.82;72.02
84928;BME280;75189;50.640;19.242;2024-03-02T22:02:48;101254.52;;;7.74;72.16
84928;BME280;75189;50.640;19.242;2024-03-02T22:08:55;101261.01;;;7.70;72.26
84928;BME280;75189;50.640;19.242;2024-03-02T22:15:03;101260.21;;;7.68;72.27
84928;BME280;75189;50.640;19.242;2024-03-02T22:21:10;101249.57;;;7.63;72.25
84928;BME280;75189;50.640;19.242;2024-03-02T22:27:17;101242.52;;;7.59;72.31
84928;BME280;75189;50.640;19.242;2024-03-02T22:33:24;101254.31;;;7.58;72.39
84928;BME280;75189;50.640;19.242;2024-03-02T22:39:31;101245.34;;;7.56;72.40
84928;BME280;75189;50.640;19.242;2024-03-02T22:45:38;101250.01;;;7.53;72.43
84928;BME280;75189;50.640;19.242;2024-03-02T22:52:05;101239.24;;;7.51;72.48
84928;BME280;75189;50.640;19.242;2024-03-02T22:58:12;101246.77;;;7.45;72.59
84928;BME280;75189;50.640;19.242;2024-03-02T23:04:19;101241.46;;;7.42;72.68
84928;BME280;75189;50.640;19.242;2024-03-02T23:10:26;101235.23;;;7.39;72.57
84928;BME280;75189;50.640;19.242;2024-03-02T23:16:33;101236.23;;;7.37;72.58
84928;BME280;75189;50.640;19.242;2024-03-02T23:22:43;101240.13;;;7.30;72.74
84928;BME280;75189;50.640;19.242;2024-03-02T23:28:52;101239.41;;;7.26;72.84
84928;BME280;75189;50.640;19.242;2024-03-02T23:34:59;101234.16;;;7.22;72.99
84928;BME280;75189;50.640;19.242;2024-03-02T23:41:22;101243.29;;;7.19;73.09
84928;BME280;75189;50.640;19.242;2024-03-02T23:47:29;101235.93;;;7.23;73.10
84928;BME280;75189;50.640;19.242;2024-03-02T23:53:36;101231.51;;;7.20;73.12
84928;BME280;75189;50.640;19.242;2024-03-02T23:59:43;101228.06;;;7.17;73.26
